Airfield :
LOGIN :

Register | Disclaimer

   EN    FR    IT 

 










Legend :    VFR   Marginal VFR   IFR   Intensive IFR   Very Intensive IFR
Visi :
Ceiling :
>= 8 km
>= 3000ft
5 to 8 km
1000 to 3000 ft
1500m to 5 km
500 to 1000 ft
800 to 1500m
200 to 500 ft
< 800m
< 200 ft
Symbols :   Thunderstorms  Fog  Heavy snow  Heavy precipitations  Wind > 20 kt
SIGMETs :     Misc.  Thunderstorms  Icing  Turbulence  Mountain Waves  Volcanic Ashes






- Airport Elevation : 146 ft
- IATA code : RKE


EKRK - Roskilde Tune

CURRENT METAR :
  • 150220Z AUTO 08008KT 040V100 9999 BKN014/// BKN220/// 05/03 Q1015

EXPIRED METARs :
  • 150150Z AUTO 08008KT 9999 SCT013/// BKN230/// 05/04 Q1015
  • 150120Z AUTO 09009KT 9999 SCT240/// 05/03 Q1015
  • 150050Z AUTO 08007KT 7000 NCD 05/04 Q1015
  • 150020Z AUTO 07007KT 5000 NCD 05/04 Q1015
  • 142350Z AUTO 07008KT 5000 FEW017/// 04/04 Q1015

TAF TAF EKRK
Valid from the 15 at 00:00 until the 15 at 09:00 UTC


142302Z 1500/1509 10008KT 6000 SCT012
TEMPO 1500/1503 4000 BR BKN008
BECMG 1504/1506 09018G28KT



MET'MAP, your aeronautical weather chart ! - Copyright ORBIFLY December 2007 - Disclaimer

ORBIFLY MET'MAP TEAM :

Programming & Development : Alexandra Zaïnal
Concept & Development : Baudouin d'Aumeries
Co-Development & Prog : Marc-Olivier Méhu
Technical & hardware support : Manuel Goepfert

Contact : metmap@orbifly.com




SOURCES & CREDITS :

   NOAA